createdAt,value
2022-09-10T00:01:19.025Z,2.70
2022-09-10T00:03:46.089Z,3.00
2022-09-10T00:06:12.730Z,3.15
2022-09-10T00:08:39.685Z,2.78
2022-09-10T00:11:09.738Z,2.95
2022-09-10T00:13:39.131Z,2.97
2022-09-10T00:16:09.007Z,2.60
2022-09-10T00:18:36.522Z,2.90
2022-09-10T00:21:08.126Z,2.50
2022-09-10T00:23:35.015Z,2.67
2022-09-10T00:26:14.913Z,3.95
2022-09-10T00:28:42.192Z,2.63
2022-09-10T00:31:08.739Z,2.42
2022-09-10T00:33:35.237Z,2.72
2022-09-10T00:36:03.167Z,2.47
2022-09-10T00:38:30.044Z,2.28
2022-09-10T00:41:03.521Z,2.40
2022-09-10T00:43:46.672Z,2.30
2022-09-10T00:46:14.680Z,2.28
2022-09-10T00:48:41.371Z,2.40
2022-09-10T00:51:07.800Z,2.60
2022-09-10T00:53:34.260Z,2.20
2022-09-10T00:56:04.545Z,2.30
2022-09-10T00:58:31.919Z,2.38
2022-09-10T01:01:02.426Z,2.13
2022-09-10T01:03:31.092Z,2.03
2022-09-10T01:05:58.156Z,2.15
2022-09-10T01:08:24.677Z,2.25
2022-09-10T01:11:22.837Z,2.13
2022-09-10T01:14:05.379Z,1.80
2022-09-10T01:16:44.358Z,2.40
2022-09-10T01:19:49.401Z,1.80
2022-09-10T01:22:37.469Z,2.20
2022-09-10T01:25:25.586Z,2.10
2022-09-10T01:27:55.102Z,2.58
2022-09-10T01:30:24.769Z,2.47
2022-09-10T01:33:00.000Z,2.13
2022-09-10T01:35:45.106Z,2.33
2022-09-10T01:38:21.929Z,1.95
2022-09-10T01:40:49.518Z,1.90
2022-09-10T01:43:16.098Z,1.95
2022-09-10T01:45:51.420Z,1.95
2022-09-10T01:48:44.289Z,1.80
2022-09-10T01:51:27.464Z,2.53
2022-09-10T01:54:00.167Z,1.73
2022-09-10T01:59:03.673Z,1.65
2022-09-10T02:01:40.412Z,2.05
2022-09-10T02:04:09.906Z,1.85
2022-09-10T02:06:39.915Z,2.38
2022-09-10T02:09:07.728Z,2.10
2022-09-10T02:12:03.413Z,1.58
2022-09-10T02:14:29.832Z,1.30
2022-09-10T02:16:58.984Z,1.35
2022-09-10T02:19:26.878Z,1.92
2022-09-10T02:21:56.110Z,1.63
2022-09-10T02:24:22.668Z,1.92
2022-09-10T02:26:49.488Z,1.50
2022-09-10T02:29:17.113Z,2.08
2022-09-10T02:31:47.345Z,1.60
2022-09-10T02:34:15.835Z,2.42
2022-09-10T02:36:42.618Z,2.53
2022-09-10T02:39:09.540Z,1.60
2022-09-10T02:41:36.705Z,2.35
2022-09-10T02:44:04.109Z,1.60
2022-09-10T02:46:31.052Z,1.30
2022-09-10T02:48:57.634Z,1.98
2022-09-10T02:51:24.722Z,1.60
2022-09-10T02:53:51.185Z,1.30
2022-09-10T02:56:19.567Z,1.52
2022-09-10T02:58:46.011Z,1.50
2022-09-10T03:01:15.387Z,1.48
2022-09-10T03:03:42.462Z,1.52
2022-09-10T03:06:09.450Z,1.33
2022-09-10T03:08:35.859Z,2.00
2022-09-10T03:11:02.833Z,1.40
2022-09-10T03:13:29.241Z,1.55
2022-09-10T03:15:56.440Z,1.85
2022-09-10T03:18:23.202Z,1.52
2022-09-10T03:20:50.616Z,1.40
2022-09-10T03:23:18.222Z,1.50
2022-09-10T03:25:49.092Z,1.77
2022-09-10T03:28:16.256Z,1.42
2022-09-10T03:30:42.771Z,1.45
2022-09-10T03:33:11.671Z,1.30
2022-09-10T03:35:38.526Z,1.10
2022-09-10T03:38:05.973Z,1.70
2022-09-10T03:40:33.081Z,1.20
2022-09-10T03:43:00.947Z,1.30
2022-09-10T03:45:28.667Z,1.55
2022-09-10T03:47:55.147Z,2.45
2022-09-10T03:50:21.580Z,1.40
2022-09-10T03:52:48.003Z,1.65
2022-09-10T03:55:14.670Z,1.48
2022-09-10T03:57:41.677Z,1.35
2022-09-10T04:00:11.901Z,1.50
2022-09-10T04:02:38.317Z,1.20
2022-09-10T04:05:05.776Z,1.30
2022-09-10T04:07:32.251Z,1.73
2022-09-10T04:09:58.662Z,1.50
2022-09-10T04:12:26.573Z,1.27
2022-09-10T04:14:53.374Z,1.40
2022-09-10T04:17:19.756Z,1.20
2022-09-10T04:19:46.211Z,1.17
2022-09-10T04:22:12.593Z,1.23
2022-09-10T04:24:39.063Z,1.30
2022-09-10T04:27:06.412Z,1.15
2022-09-10T04:29:32.853Z,1.35
2022-09-10T04:31:59.260Z,1.67
2022-09-10T04:34:25.677Z,1.00
2022-09-10T04:36:53.594Z,1.10
2022-09-10T04:39:20.135Z,1.30
2022-09-10T04:41:46.546Z,1.23
2022-09-10T04:44:13.562Z,0.90
2022-09-10T04:46:41.280Z,1.17
2022-09-10T04:49:07.878Z,1.23
2022-09-10T04:51:34.307Z,1.30
2022-09-10T04:54:01.731Z,1.00
2022-09-10T04:56:28.432Z,1.20
2022-09-10T04:58:54.802Z,1.55
2022-09-10T05:01:21.250Z,1.65
2022-09-10T05:03:47.633Z,1.30
2022-09-10T05:06:14.016Z,1.20
2022-09-10T05:08:40.591Z,1.83
2022-09-10T05:11:07.079Z,0.82
2022-09-10T05:13:36.000Z,1.35
2022-09-10T05:16:02.464Z,1.42
2022-09-10T05:18:28.909Z,2.45
2022-09-10T05:20:55.392Z,1.20
2022-09-10T05:23:21.873Z,1.58
2022-09-10T05:25:48.895Z,1.45
2022-09-10T05:28:16.364Z,1.20
2022-09-10T05:30:49.542Z,1.10
2022-09-10T05:33:17.957Z,1.23
2022-09-10T05:35:44.464Z,1.35
2022-09-10T05:38:12.082Z,1.25
2022-09-10T05:40:38.494Z,1.65
2022-09-10T05:43:05.086Z,1.15
2022-09-10T05:45:31.506Z,1.00
2022-09-10T05:47:57.962Z,1.30
2022-09-10T05:50:24.428Z,0.98
2022-09-10T05:52:51.230Z,1.02
2022-09-10T05:55:18.110Z,1.17
2022-09-10T05:57:44.536Z,1.00
2022-09-10T06:00:11.577Z,1.50
2022-09-10T06:02:38.108Z,1.10
2022-09-10T06:05:04.997Z,0.95
2022-09-10T06:07:31.544Z,1.02
2022-09-10T06:09:57.980Z,1.83
2022-09-10T06:12:24.394Z,1.05
2022-09-10T06:14:50.822Z,1.13
2022-09-10T06:17:17.769Z,1.42
2022-09-10T06:19:45.707Z,0.90
2022-09-10T06:22:13.242Z,1.00
2022-09-10T06:24:39.655Z,1.05
2022-09-10T06:27:06.478Z,0.80
2022-09-10T06:29:36.077Z,0.90
2022-09-10T06:32:03.225Z,0.73
2022-09-10T06:34:29.665Z,1.05
2022-09-10T06:36:58.201Z,0.82
2022-09-10T06:39:24.982Z,1.08
2022-09-10T06:41:51.567Z,1.52
2022-09-10T06:44:18.378Z,0.93
2022-09-10T06:47:30.475Z,0.80
2022-09-10T06:49:31.409Z,1.60
2022-09-10T06:51:57.932Z,1.00
2022-09-10T06:54:25.490Z,0.80
2022-09-10T06:56:52.809Z,0.80
2022-09-10T06:59:19.362Z,0.95
2022-09-10T07:01:47.308Z,1.02
2022-09-10T07:04:14.086Z,2.03
2022-09-10T07:06:40.531Z,1.58
2022-09-10T07:09:07.011Z,0.80
2022-09-10T07:11:35.928Z,0.88
2022-09-10T07:14:06.023Z,0.90
2022-09-10T07:16:32.524Z,1.05
2022-09-10T07:19:00.083Z,0.73
2022-09-10T07:21:28.371Z,0.77
2022-09-10T07:23:58.808Z,1.00
2022-09-10T07:26:25.906Z,0.80
2022-09-10T07:28:52.910Z,0.80
2022-09-10T07:31:28.110Z,1.08
2022-09-10T07:33:55.398Z,1.00
2022-09-10T07:36:21.980Z,0.90
2022-09-10T07:38:51.912Z,1.25
2022-09-10T07:41:18.633Z,0.88
2022-09-10T07:43:45.156Z,1.10
2022-09-10T07:46:19.468Z,0.88
2022-09-10T07:48:48.591Z,1.23
2022-09-10T07:51:19.177Z,0.90
2022-09-10T07:53:50.493Z,1.05
2022-09-10T07:56:17.257Z,1.08
2022-09-10T07:58:43.869Z,0.90
2022-09-10T08:01:12.389Z,0.80
2022-09-10T08:03:39.949Z,1.20
2022-09-10T08:06:08.122Z,0.77
2022-09-10T08:08:36.517Z,0.82
2022-09-10T08:11:13.875Z,0.80
2022-09-10T08:13:41.721Z,0.85
2022-09-10T08:16:13.820Z,0.70
2022-09-10T08:18:40.605Z,0.80
2022-09-10T08:21:10.816Z,0.90
2022-09-10T08:23:39.597Z,1.17
2022-09-10T08:26:08.364Z,1.15
2022-09-10T08:28:36.207Z,0.93
2022-09-10T08:31:08.378Z,0.95
2022-09-10T08:33:36.323Z,1.08
2022-09-10T08:36:04.710Z,0.75
2022-09-10T08:38:34.097Z,1.27
2022-09-10T08:41:02.652Z,0.60
2022-09-10T08:43:42.599Z,0.73
2022-09-10T08:46:20.964Z,0.80
2022-09-10T08:48:51.402Z,0.65
2022-09-10T08:51:27.545Z,0.80
2022-09-10T08:53:55.831Z,1.00
2022-09-10T08:56:23.502Z,0.90
2022-09-10T08:59:22.400Z,0.73
2022-09-10T09:01:55.579Z,0.90
2022-09-10T09:04:44.050Z,0.85
2022-09-10T09:07:21.981Z,0.70
2022-09-10T09:09:53.268Z,0.73
2022-09-10T09:12:38.428Z,0.70
2022-09-10T09:15:10.217Z,0.63
2022-09-10T09:18:10.788Z,0.83
2022-09-10T09:20:46.511Z,0.90
2022-09-10T09:23:23.636Z,1.38
2022-09-10T09:25:53.940Z,0.80
2022-09-10T09:28:20.386Z,0.70
2022-09-10T09:30:49.689Z,0.80
2022-09-10T09:33:21.050Z,0.80
2022-09-10T09:35:53.990Z,1.00
2022-09-10T09:38:27.601Z,0.80
2022-09-10T09:40:58.039Z,0.70
2022-09-10T09:43:46.592Z,0.80
2022-09-10T09:46:18.813Z,0.70
2022-09-10T09:48:46.686Z,0.63
2022-09-10T09:51:21.412Z,0.65
2022-09-10T09:54:01.023Z,0.80
2022-09-10T09:56:42.595Z,0.70
2022-09-10T10:01:45.037Z,0.65
2022-09-10T10:04:33.843Z,1.02
2022-09-10T10:07:02.021Z,0.80
2022-09-10T10:09:31.398Z,1.00
2022-09-10T10:12:04.411Z,0.70
2022-09-10T10:14:30.991Z,0.60
2022-09-10T10:17:01.096Z,0.63
2022-09-10T10:19:36.875Z,0.88
2022-09-10T10:22:18.188Z,0.85
2022-09-10T10:24:46.768Z,0.88
2022-09-10T10:27:24.570Z,0.75
2022-09-10T10:29:52.310Z,1.02
2022-09-10T10:32:20.561Z,0.90
2022-09-10T10:35:10.547Z,1.05
2022-09-10T10:37:58.040Z,0.60
2022-09-10T10:40:46.774Z,1.00
2022-09-10T10:43:47.365Z,0.80
2022-09-10T10:46:21.962Z,0.90
2022-09-10T10:49:15.783Z,0.85
2022-09-10T10:52:20.759Z,0.88
2022-09-10T10:54:53.103Z,1.00
2022-09-10T10:57:41.695Z,0.93
2022-09-10T11:00:20.246Z,0.98
2022-09-10T11:03:08.696Z,0.95
2022-09-10T11:05:42.600Z,0.70
2022-09-10T11:08:21.158Z,0.60
2022-09-10T11:11:14.946Z,0.90
2022-09-10T11:13:53.486Z,0.70
2022-09-10T11:16:41.632Z,0.93
2022-09-10T11:19:26.757Z,0.70
2022-09-10T11:22:18.421Z,0.70
2022-09-10T11:25:23.476Z,1.05
2022-09-10T11:28:16.627Z,0.85
2022-09-10T11:33:23.441Z,1.35
2022-09-10T11:36:23.659Z,0.70
2022-09-10T11:39:01.693Z,0.80
2022-09-10T11:41:32.846Z,1.15
2022-09-10T11:44:22.108Z,0.73
2022-09-10T11:47:10.449Z,0.82
2022-09-10T11:49:58.347Z,0.60
2022-09-10T11:52:25.881Z,0.68
2022-09-10T11:54:53.967Z,0.70
2022-09-10T11:57:44.290Z,0.85
2022-09-10T12:00:17.815Z,0.68
2022-09-10T12:03:06.413Z,0.70
2022-09-10T12:05:59.021Z,0.70
2022-09-10T12:08:57.270Z,1.20
2022-09-10T12:11:29.498Z,0.70
2022-09-10T12:13:59.829Z,0.80
2022-09-10T12:16:35.586Z,0.85
2022-09-10T12:19:08.796Z,0.80
2022-09-10T12:21:41.555Z,0.70
2022-09-10T12:24:40.787Z,0.70
2022-09-10T12:27:07.943Z,0.60
2022-09-10T12:29:42.488Z,0.88
2022-09-10T12:32:09.530Z,0.82
2022-09-10T12:34:37.090Z,0.70
2022-09-10T12:37:03.484Z,0.70
2022-09-10T12:39:31.046Z,0.77
2022-09-10T12:42:04.328Z,0.65
2022-09-10T12:44:36.660Z,0.98
2022-09-10T12:47:15.898Z,0.80
2022-09-10T12:49:51.239Z,0.60
2022-09-10T12:52:44.064Z,0.70
2022-09-10T12:56:05.099Z,1.17
2022-09-10T12:58:59.583Z,0.82
2022-09-10T13:01:39.032Z,1.00
2022-09-10T13:04:20.334Z,0.90
2022-09-10T13:06:49.323Z,0.75
2022-09-10T13:09:20.988Z,0.70
2022-09-10T13:11:52.581Z,0.50
2022-09-10T13:14:34.002Z,0.68
2022-09-10T13:17:03.470Z,0.80
2022-09-10T13:19:29.880Z,0.75
2022-09-10T13:21:56.824Z,0.75
2022-09-10T13:24:36.159Z,0.80
2022-09-10T13:27:36.617Z,0.77
2022-09-10T13:30:18.195Z,0.70
2022-09-10T13:33:02.035Z,0.80
2022-09-10T13:35:52.479Z,0.70
2022-09-10T13:39:03.294Z,0.98
2022-09-10T13:42:17.645Z,1.38
2022-09-10T13:45:00.245Z,0.80
2022-09-10T13:47:51.286Z,1.15
2022-09-10T13:50:26.937Z,0.80
2022-09-10T13:52:57.609Z,0.82
2022-09-10T13:55:30.273Z,0.80
2022-09-10T14:00:30.619Z,0.93
2022-09-10T14:02:58.968Z,0.90
2022-09-10T14:05:29.046Z,1.27
2022-09-10T14:08:00.026Z,1.10
2022-09-10T14:10:26.535Z,0.70
2022-09-10T14:12:53.790Z,2.20
2022-09-10T14:15:24.353Z,1.23
2022-09-10T14:17:55.659Z,1.77
2022-09-10T14:20:28.473Z,1.85
2022-09-10T14:22:59.647Z,1.63
2022-09-10T14:25:32.373Z,1.17
2022-09-10T14:28:13.919Z,2.15
2022-09-10T14:30:40.489Z,2.40
2022-09-10T14:33:26.843Z,1.10
2022-09-10T14:35:58.006Z,2.35
2022-09-10T14:38:31.720Z,1.10
2022-09-10T14:41:08.579Z,0.80
2022-09-10T14:43:39.016Z,2.13
2022-09-10T14:46:08.050Z,2.85
2022-09-10T14:49:04.578Z,2.47
2022-09-10T14:51:30.981Z,1.35
2022-09-10T14:53:58.628Z,1.48
2022-09-10T14:56:32.701Z,0.95
2022-09-10T14:59:05.677Z,1.58
2022-09-10T15:01:32.290Z,2.00
2022-09-10T15:04:01.845Z,3.63
2022-09-10T15:06:28.305Z,2.35
2022-09-10T15:08:56.262Z,1.00
2022-09-10T15:11:29.021Z,0.93
2022-09-10T15:16:27.598Z,1.00
2022-09-10T15:18:54.051Z,1.20
2022-09-10T15:21:20.561Z,1.55
2022-09-10T15:23:48.211Z,0.80
2022-09-10T15:26:15.275Z,1.42
2022-09-10T15:28:42.150Z,1.00
2022-09-10T15:31:10.919Z,1.10
2022-09-10T15:33:37.505Z,1.02
2022-09-10T15:36:04.237Z,1.95
2022-09-10T15:38:31.395Z,1.02
2022-09-10T15:41:12.546Z,0.95
2022-09-10T15:43:42.811Z,2.45
2022-09-10T15:46:11.277Z,1.42
2022-09-10T15:48:38.436Z,0.80
2022-09-10T15:51:07.106Z,0.93
2022-09-10T15:53:33.773Z,1.00
2022-09-10T15:56:07.269Z,1.38
2022-09-10T15:58:37.617Z,1.02
2022-09-10T16:01:13.263Z,0.80
2022-09-10T16:03:57.477Z,0.90
2022-09-10T16:06:27.300Z,0.90
2022-09-10T16:08:56.972Z,0.65
2022-09-10T16:11:24.986Z,0.93
2022-09-10T16:13:51.489Z,0.90
2022-09-10T16:16:23.017Z,1.13
2022-09-10T16:18:53.058Z,1.52
2022-09-10T16:21:26.099Z,2.10
2022-09-10T16:23:54.811Z,1.02
2022-09-10T16:26:23.959Z,0.75
2022-09-10T16:28:52.128Z,0.80
2022-09-10T16:31:22.528Z,1.10
2022-09-10T16:33:54.162Z,1.20
2022-09-10T16:36:21.318Z,1.05
2022-09-10T16:38:52.818Z,1.40
2022-09-10T16:41:19.318Z,1.40
2022-09-10T16:43:45.777Z,1.10
2022-09-10T16:46:12.964Z,1.17
2022-09-10T16:48:41.584Z,1.10
2022-09-10T16:51:15.609Z,1.00
2022-09-10T16:53:44.627Z,1.02
2022-09-10T16:56:13.345Z,1.05
2022-09-10T16:58:41.463Z,1.00
2022-09-10T17:01:09.367Z,0.80
2022-09-10T17:03:40.297Z,1.13
2022-09-10T17:06:12.600Z,1.20
2022-09-10T17:08:39.045Z,1.00
2022-09-10T17:11:08.732Z,0.80
2022-09-10T17:13:37.932Z,1.20
2022-09-10T17:16:24.695Z,1.10
2022-09-10T17:18:56.862Z,1.15
2022-09-10T17:21:23.694Z,0.88
2022-09-10T17:23:50.108Z,1.67
2022-09-10T17:26:17.825Z,0.98
2022-09-10T17:28:44.343Z,1.30
2022-09-10T17:31:10.774Z,1.15
2022-09-10T17:33:37.187Z,1.17
2022-09-10T17:36:03.944Z,1.10
2022-09-10T17:38:33.202Z,1.50
2022-09-10T17:41:02.948Z,1.10
2022-09-10T17:43:33.917Z,1.20
2022-09-10T17:46:09.338Z,1.17
2022-09-10T17:48:37.764Z,1.25
2022-09-10T17:51:07.476Z,1.05
2022-09-10T17:53:34.934Z,1.05
2022-09-10T17:56:05.784Z,0.85
2022-09-10T17:58:33.585Z,1.23
2022-09-10T18:01:02.306Z,1.13
2022-09-10T18:03:29.430Z,1.60
2022-09-10T18:05:56.988Z,0.90
2022-09-10T18:08:23.387Z,1.10
2022-09-10T18:10:50.786Z,1.10
2022-09-10T18:13:19.526Z,1.10
2022-09-10T18:15:49.764Z,0.80
2022-09-10T18:18:16.177Z,0.90
2022-09-10T18:20:42.939Z,1.10
2022-09-10T18:23:09.759Z,1.40
2022-09-10T18:25:36.131Z,0.98
2022-09-10T18:28:03.087Z,1.00
2022-09-10T18:30:29.649Z,1.10
2022-09-10T18:32:56.214Z,1.23
2022-09-10T18:35:23.005Z,0.80
2022-09-10T18:37:52.476Z,1.27
2022-09-10T18:40:19.879Z,1.20
2022-09-10T18:42:47.819Z,1.23
2022-09-10T18:45:14.444Z,1.10
2022-09-10T18:47:44.997Z,1.13
2022-09-10T18:50:13.175Z,1.20
2022-09-10T18:52:39.765Z,1.10
2022-09-10T18:55:06.682Z,1.17
2022-09-10T18:57:33.066Z,1.00
2022-09-10T19:00:00.331Z,1.33
2022-09-10T19:02:26.843Z,1.27
2022-09-10T19:05:12.388Z,1.30
2022-09-10T19:07:41.945Z,1.40
2022-09-10T19:10:08.956Z,1.20
2022-09-10T19:12:35.476Z,1.30
2022-09-10T19:15:01.911Z,1.20
2022-09-10T19:17:28.293Z,1.48
2022-09-10T19:19:54.701Z,1.10
2022-09-10T19:22:21.125Z,1.20
2022-09-10T19:24:55.835Z,1.00
2022-09-10T19:27:23.914Z,1.15
2022-09-10T19:29:53.751Z,1.30
2022-09-10T19:32:22.979Z,1.63
2022-09-10T19:34:50.682Z,1.30
2022-09-10T19:37:17.256Z,1.25
2022-09-10T19:39:44.413Z,2.13
2022-09-10T19:42:11.644Z,1.30
2022-09-10T19:44:38.066Z,1.35
2022-09-10T19:47:04.647Z,2.22
2022-09-10T19:49:31.309Z,1.58
2022-09-10T19:51:57.714Z,1.30
2022-09-10T19:54:25.614Z,1.65
2022-09-10T19:56:52.068Z,1.10
2022-09-10T19:59:18.533Z,1.30
2022-09-10T20:01:46.087Z,1.02
2022-09-10T20:04:14.105Z,1.70
2022-09-10T20:06:42.659Z,1.42
2022-09-10T20:09:12.543Z,1.20
2022-09-10T20:11:39.081Z,2.10
2022-09-10T20:14:08.292Z,1.45
2022-09-10T20:16:39.219Z,1.52
2022-09-10T20:19:06.854Z,1.67
2022-09-10T20:21:34.206Z,1.58
2022-09-10T20:24:00.697Z,1.40
2022-09-10T20:26:28.336Z,2.17
2022-09-10T20:28:57.970Z,1.80
2022-09-10T20:31:27.087Z,1.40
2022-09-10T20:34:02.997Z,1.65
2022-09-10T20:36:31.264Z,1.38
2022-09-10T20:38:58.201Z,1.55
2022-09-10T20:41:30.252Z,1.75
2022-09-10T20:43:58.640Z,1.90
2022-09-10T20:46:27.085Z,1.33
2022-09-10T20:48:54.256Z,1.40
2022-09-10T20:51:21.084Z,1.83
2022-09-10T20:53:48.265Z,1.35
2022-09-10T20:56:18.086Z,2.03
2022-09-10T20:58:45.964Z,1.92
2022-09-10T21:01:20.883Z,1.73
2022-09-10T21:03:49.078Z,1.70
2022-09-10T21:06:18.356Z,1.50
2022-09-10T21:08:45.462Z,1.70
2022-09-10T21:11:13.458Z,1.75
2022-09-10T21:13:45.897Z,1.88
2022-09-10T21:16:17.878Z,1.83
2022-09-10T21:18:52.213Z,2.00
2022-09-10T21:21:23.075Z,2.10
2022-09-10T21:23:51.480Z,2.25
2022-09-10T21:26:20.717Z,2.15
2022-09-10T21:28:48.045Z,1.70
2022-09-10T21:31:14.618Z,1.63
2022-09-10T21:33:42.388Z,2.08
2022-09-10T21:36:12.345Z,2.25
2022-09-10T21:38:39.105Z,1.65
2022-09-10T21:41:06.884Z,2.33
2022-09-10T21:43:35.092Z,1.85
2022-09-10T21:46:02.819Z,2.58
2022-09-10T21:48:30.974Z,2.10
2022-09-10T21:51:04.437Z,2.20
2022-09-10T21:53:31.656Z,2.30
2022-09-10T21:55:59.249Z,2.40
2022-09-10T21:58:28.320Z,2.10
2022-09-10T22:00:58.222Z,3.70
2022-09-10T22:03:29.704Z,2.10
2022-09-10T22:06:07.351Z,2.28
2022-09-10T22:08:34.239Z,2.95
2022-09-10T22:11:06.476Z,2.80
2022-09-10T22:13:33.698Z,3.15
2022-09-10T22:16:00.327Z,2.83
2022-09-10T22:18:26.837Z,3.10
2022-09-10T22:21:00.675Z,3.10
2022-09-10T22:23:32.702Z,2.35
2022-09-10T22:26:14.117Z,2.50
2022-09-10T22:28:41.660Z,2.42
2022-09-10T22:31:20.309Z,2.90
2022-09-10T22:33:52.064Z,2.65
2022-09-10T22:36:26.647Z,3.10
2022-09-10T22:39:02.048Z,3.00
2022-09-10T22:41:29.969Z,2.80
2022-09-10T22:43:57.027Z,3.28
2022-09-10T22:46:25.029Z,3.05
2022-09-10T22:48:51.545Z,2.75
2022-09-10T22:51:23.351Z,3.38
2022-09-10T22:53:51.666Z,2.40
2022-09-10T22:56:20.835Z,3.28
2022-09-10T22:58:47.292Z,2.85
2022-09-10T23:01:18.808Z,3.33
2022-09-10T23:03:45.897Z,2.92
2022-09-10T23:06:23.113Z,3.40
2022-09-10T23:08:52.144Z,3.60
2022-09-10T23:11:20.997Z,3.58
2022-09-10T23:13:49.880Z,2.97
2022-09-10T23:16:22.269Z,2.92
2022-09-10T23:18:51.430Z,3.13
2022-09-10T23:21:19.540Z,3.08
2022-09-10T23:23:47.694Z,3.47
2022-09-10T23:26:14.882Z,3.40
2022-09-10T23:28:44.404Z,3.22
2022-09-10T23:31:16.461Z,3.33
2022-09-10T23:33:45.229Z,3.30
2022-09-10T23:36:13.453Z,3.67
2022-09-10T23:38:43.795Z,3.28
2022-09-10T23:41:15.925Z,3.90
2022-09-10T23:43:43.723Z,3.42
2022-09-10T23:46:13.487Z,3.50
2022-09-10T23:48:42.419Z,3.58
2022-09-10T23:51:12.058Z,3.50
2022-09-10T23:53:39.835Z,3.58
2022-09-10T23:56:06.584Z,4.53
2022-09-10T23:58:32.983Z,3.53
